Aviation Digital Data Service (ADDS)

Output produced by METARs form (0315 UTC 25 February 2021)
found at http://www.aviationweather.gov/metar/data/
 
KSBY 250254Z 22006KT 10SM CLR 09/04 A2988 RMK AO2 SLPNO T00890039 56010
KSBY 242322Z 2500/2524 19008KT P6SM SKC 
     FM250400 22010KT P6SM SCT250 WS020/24040KT 
     FM250700 25010KT P6SM SCT250 
     FM250900 30009KT P6SM BKN100 
     FM251200 34010KT P6SM SKC